createdAt,value
2023-05-19T05:01:12.985Z,0.50
2023-05-19T05:02:13.057Z,0.50
2023-05-19T05:03:13.056Z,0.50
2023-05-19T05:04:13.065Z,0.50
2023-05-19T05:05:12.953Z,0.50
2023-05-19T05:06:12.980Z,0.50
2023-05-19T05:07:13.085Z,0.34
2023-05-19T05:08:13.058Z,0.34
2023-05-19T05:09:13.081Z,0.34
2023-05-19T05:10:13.083Z,0.34
2023-05-19T05:11:13.092Z,0.34
2023-05-19T05:12:13.125Z,0.34
2023-05-19T05:13:13.172Z,0.34
2023-05-19T05:14:13.180Z,0.34
2023-05-19T05:15:13.176Z,0.34
2023-05-19T05:16:13.248Z,0.34
2023-05-19T05:17:13.328Z,0.34
2023-05-19T05:18:13.326Z,0.34
2023-05-19T05:19:13.413Z,0.34
2023-05-19T05:20:13.396Z,0.34
2023-05-19T05:21:13.390Z,0.34
2023-05-19T05:22:13.449Z,0.34
2023-05-19T05:23:13.483Z,0.34
2023-05-19T05:24:13.555Z,0.34
2023-05-19T05:25:13.567Z,0.34
2023-05-19T05:26:13.640Z,0.34
2023-05-19T05:27:13.681Z,0.35
2023-05-19T05:28:13.765Z,0.43
2023-05-19T05:29:13.787Z,0.50
2023-05-19T05:30:13.877Z,0.51
2023-05-19T05:31:13.885Z,0.51
2023-05-19T05:32:13.933Z,0.51
2023-05-19T05:33:14.149Z,0.52
2023-05-19T05:34:14.046Z,0.50
2023-05-19T05:35:14.102Z,0.51
2023-05-19T05:36:14.145Z,0.52
2023-05-19T05:37:15.348Z,0.53
2023-05-19T05:38:14.205Z,0.51
2023-05-19T05:39:14.281Z,0.51
2023-05-19T05:40:14.323Z,0.50
2023-05-19T05:41:14.430Z,0.55
2023-05-19T05:42:14.455Z,0.54
2023-05-19T05:43:14.505Z,0.55
2023-05-19T05:44:14.584Z,0.53
2023-05-19T05:45:14.583Z,0.52
2023-05-19T05:46:14.740Z,0.51
2023-05-19T05:47:14.716Z,0.53
2023-05-19T05:48:14.817Z,0.50
2023-05-19T05:49:14.860Z,0.50
2023-05-19T05:50:14.863Z,0.52
2023-05-19T05:51:14.924Z,0.53
2023-05-19T05:52:15.002Z,0.50
2023-05-19T05:53:15.039Z,0.50
2023-05-19T05:54:15.139Z,0.52
2023-05-19T05:55:15.164Z,0.51
2023-05-19T05:56:15.305Z,0.51
2023-05-19T05:57:15.229Z,0.51
2023-05-19T05:58:15.288Z,0.51
2023-05-19T05:59:15.373Z,0.52
2023-05-19T06:00:15.473Z,0.50
2023-05-19T06:01:15.531Z,0.51
2023-05-19T06:02:15.596Z,0.51
2023-05-19T06:03:15.696Z,0.50
2023-05-19T06:04:15.646Z,0.52
2023-05-19T06:05:15.759Z,0.53
2023-05-19T06:06:15.741Z,0.53
2023-05-19T06:07:16.340Z,0.55
2023-05-19T06:08:15.878Z,0.54
2023-05-19T06:09:15.947Z,0.55
2023-05-19T06:10:15.997Z,0.54
2023-05-19T06:11:16.047Z,0.55
2023-05-19T06:12:16.102Z,0.56
2023-05-19T06:13:16.161Z,0.51
2023-05-19T06:14:16.208Z,0.54
2023-05-19T06:15:16.284Z,0.52
2023-05-19T06:16:17.057Z,0.54
2023-05-19T06:17:16.387Z,0.53
2023-05-19T06:18:16.454Z,0.53
2023-05-19T06:19:16.521Z,0.53
2023-05-19T06:20:16.536Z,0.55
2023-05-19T06:21:16.665Z,0.50
2023-05-19T06:22:16.677Z,0.52
2023-05-19T06:23:16.746Z,0.52
2023-05-19T06:24:16.772Z,0.54
2023-05-19T06:25:16.879Z,0.53
2023-05-19T06:26:16.882Z,0.52
2023-05-19T06:27:16.959Z,0.53
2023-05-19T06:28:17.018Z,0.53
2023-05-19T06:29:17.081Z,0.53
2023-05-19T06:30:17.072Z,0.54
2023-05-19T06:31:17.199Z,0.53
2023-05-19T06:32:17.171Z,0.53
2023-05-19T06:33:17.246Z,0.54
2023-05-19T06:34:17.331Z,0.51
2023-05-19T06:35:17.319Z,0.52
2023-05-19T06:36:17.537Z,0.52
2023-05-19T06:37:17.467Z,0.51
2023-05-19T06:38:17.528Z,0.54
2023-05-19T06:39:17.553Z,0.52
2023-05-19T06:40:17.620Z,0.52
2023-05-19T06:41:17.683Z,0.51
2023-05-19T06:42:17.710Z,0.51
2023-05-19T06:43:17.782Z,0.51
2023-05-19T06:44:19.833Z,0.51
2023-05-19T06:45:17.841Z,0.53
2023-05-19T06:46:17.937Z,0.51
2023-05-19T06:47:17.869Z,0.51
2023-05-19T06:48:17.930Z,0.51
2023-05-19T06:49:17.796Z,0.51
2023-05-19T06:50:17.812Z,0.53
2023-05-19T06:51:17.791Z,0.51
2023-05-19T06:52:17.766Z,0.52
2023-05-19T06:53:17.806Z,0.51
2023-05-19T06:54:17.769Z,0.51
2023-05-19T06:55:17.739Z,0.50
2023-05-19T06:56:17.792Z,0.52
2023-05-19T06:57:17.740Z,0.52
2023-05-19T06:58:17.752Z,0.51
2023-05-19T06:59:17.728Z,0.50
2023-05-19T07:00:19.372Z,0.50
2023-05-19T07:01:17.753Z,0.50
2023-05-19T07:02:17.762Z,0.51
2023-05-19T07:03:17.827Z,0.51
2023-05-19T07:04:17.660Z,0.50
2023-05-19T07:05:17.691Z,0.47
2023-05-19T07:06:17.653Z,0.51
2023-05-19T07:07:17.695Z,0.52
2023-05-19T07:08:17.665Z,0.53
2023-05-19T07:09:17.815Z,0.54
2023-05-19T07:10:17.665Z,0.53
2023-05-19T07:11:17.678Z,0.52
2023-05-19T07:12:17.756Z,0.53
2023-05-19T07:13:17.670Z,0.53
2023-05-19T07:14:17.658Z,0.50
2023-05-19T07:15:17.655Z,0.50
2023-05-19T07:16:17.666Z,0.52
2023-05-19T07:17:17.630Z,0.52
2023-05-19T07:18:17.621Z,0.52
2023-05-19T07:19:17.632Z,0.58
2023-05-19T07:20:17.592Z,0.52
2023-05-19T07:21:17.565Z,0.54
2023-05-19T07:22:17.584Z,0.52
2023-05-19T07:23:17.613Z,0.54
2023-05-19T07:24:17.584Z,0.57
2023-05-19T07:25:17.578Z,0.53
2023-05-19T07:26:17.532Z,0.56
2023-05-19T07:27:17.549Z,0.56
2023-05-19T07:28:17.562Z,0.55
2023-05-19T07:29:17.516Z,0.58
2023-05-19T07:30:17.553Z,0.58
2023-05-19T07:31:17.523Z,0.60
2023-05-19T07:32:17.625Z,0.58
2023-05-19T07:33:17.558Z,0.61
2023-05-19T07:34:17.569Z,0.53
2023-05-19T07:35:17.643Z,0.53
2023-05-19T07:36:17.696Z,0.59
2023-05-19T07:37:17.754Z,0.56
2023-05-19T07:38:17.776Z,0.60
2023-05-19T07:39:17.873Z,0.56
2023-05-19T07:40:17.890Z,0.53
2023-05-19T07:41:17.958Z,0.60
2023-05-19T07:42:18.006Z,0.58
2023-05-19T07:43:18.062Z,0.57
2023-05-19T07:44:18.069Z,0.58
2023-05-19T07:45:18.137Z,0.61
2023-05-19T07:46:18.289Z,0.54
2023-05-19T07:47:18.230Z,0.56
2023-05-19T07:48:18.319Z,0.56
2023-05-19T07:49:18.371Z,0.52
2023-05-19T07:50:18.466Z,0.51
2023-05-19T07:51:18.474Z,0.56
2023-05-19T07:52:18.521Z,0.59
2023-05-19T07:53:18.577Z,0.56
2023-05-19T07:54:18.674Z,0.57
2023-05-19T07:55:18.689Z,0.59
2023-05-19T07:56:18.814Z,0.58
2023-05-19T07:57:18.839Z,0.57
2023-05-19T07:58:18.861Z,0.56
2023-05-19T07:59:18.909Z,0.55
2023-05-19T08:00:18.918Z,0.52
2023-05-19T08:01:19.004Z,0.55
2023-05-19T08:02:19.060Z,0.60
2023-05-19T08:03:19.384Z,0.58
2023-05-19T08:04:19.252Z,0.60
2023-05-19T08:05:19.211Z,0.57
2023-05-19T08:06:19.233Z,0.62
2023-05-19T08:07:19.275Z,0.58
2023-05-19T08:08:19.308Z,0.57
2023-05-19T08:09:19.388Z,0.57
2023-05-19T08:10:19.394Z,0.59
2023-05-19T08:11:19.469Z,0.61
2023-05-19T08:12:19.571Z,0.63
2023-05-19T08:13:19.577Z,0.66
2023-05-19T08:14:19.632Z,0.65
2023-05-19T08:15:19.635Z,0.68
2023-05-19T08:16:19.808Z,0.68
2023-05-19T08:17:19.751Z,0.70
2023-05-19T08:18:19.776Z,0.69
2023-05-19T08:19:19.906Z,0.69
2023-05-19T08:20:19.846Z,0.68
2023-05-19T08:21:19.900Z,0.69
2023-05-19T08:22:19.912Z,0.68
2023-05-19T08:23:19.978Z,0.72
2023-05-19T08:24:20.003Z,0.71
2023-05-19T08:25:20.070Z,0.73
2023-05-19T08:26:20.108Z,0.74
2023-05-19T08:27:20.110Z,0.71
2023-05-19T08:28:20.130Z,0.71
2023-05-19T08:29:20.281Z,0.71
2023-05-19T08:30:20.248Z,0.70
2023-05-19T08:31:20.343Z,0.69
2023-05-19T08:32:20.315Z,0.70
2023-05-19T08:33:20.358Z,0.69
2023-05-19T08:34:20.358Z,0.68
2023-05-19T08:35:20.391Z,0.65
2023-05-19T08:36:20.551Z,0.65
2023-05-19T08:37:20.471Z,0.66
2023-05-19T08:38:20.506Z,0.65
2023-05-19T08:39:20.540Z,0.71
2023-05-19T08:40:20.569Z,0.70
2023-05-19T08:41:20.602Z,0.69
2023-05-19T08:42:20.608Z,0.70
2023-05-19T08:43:20.688Z,0.69
2023-05-19T08:44:20.698Z,0.72
2023-05-19T08:45:20.729Z,0.71
2023-05-19T08:46:20.774Z,0.75
2023-05-19T08:47:20.777Z,0.74
2023-05-19T08:48:20.835Z,0.74
2023-05-19T08:49:20.849Z,0.76
2023-05-19T08:50:20.873Z,0.75
2023-05-19T08:51:20.906Z,0.74
2023-05-19T08:52:21.031Z,0.74
2023-05-19T08:54:21.994Z,0.73
2023-05-19T08:55:20.978Z,0.73
2023-05-19T08:56:21.005Z,0.74
2023-05-19T08:57:20.950Z,0.74
2023-05-19T08:58:20.974Z,0.75
2023-05-19T08:59:20.977Z,0.76
2023-05-19T09:00:20.950Z,0.76
2023-05-19T09:01:20.978Z,0.74
2023-05-19T09:02:20.903Z,0.72
2023-05-19T09:03:24.072Z,0.75
2023-05-19T09:04:21.049Z,0.77
2023-05-19T09:05:20.914Z,0.77
2023-05-19T09:06:20.873Z,0.74
2023-05-19T09:07:20.874Z,0.76
2023-05-19T09:08:20.874Z,0.77
2023-05-19T09:09:20.881Z,0.80
2023-05-19T09:10:20.871Z,0.80
2023-05-19T09:11:20.857Z,0.81
2023-05-19T09:12:20.847Z,0.80
2023-05-19T09:13:20.871Z,0.80
2023-05-19T09:14:20.871Z,0.80
2023-05-19T09:15:20.871Z,0.81
2023-05-19T09:16:20.907Z,0.81
2023-05-19T09:17:20.841Z,0.81
2023-05-19T09:18:20.835Z,0.82
2023-05-19T09:19:20.871Z,0.81
2023-05-19T09:20:20.829Z,0.84
2023-05-19T09:21:20.804Z,0.84
2023-05-19T09:22:20.790Z,0.84
2023-05-19T09:23:20.788Z,0.82
2023-05-19T09:24:20.772Z,0.83
2023-05-19T09:25:20.781Z,0.84
2023-05-19T09:26:20.768Z,0.85
2023-05-19T09:27:20.737Z,0.86
2023-05-19T09:28:20.741Z,0.85
2023-05-19T09:29:20.754Z,0.85
2023-05-19T09:30:20.747Z,0.85
2023-05-19T09:31:20.721Z,0.85
2023-05-19T09:32:20.833Z,0.87
2023-05-19T09:33:20.935Z,0.87
2023-05-19T09:34:20.718Z,0.87
2023-05-19T09:35:20.720Z,0.85
2023-05-19T09:36:20.714Z,0.87
2023-05-19T09:37:20.698Z,0.86
2023-05-19T09:38:20.695Z,0.85
2023-05-19T09:39:20.662Z,0.86
2023-05-19T09:40:20.700Z,0.86
2023-05-19T09:41:20.674Z,0.89
2023-05-19T09:42:20.661Z,0.88
2023-05-19T09:43:20.674Z,0.88
2023-05-19T09:44:20.635Z,0.87
2023-05-19T09:45:20.641Z,0.88
2023-05-19T09:46:20.716Z,0.87
2023-05-19T09:47:20.603Z,0.89
2023-05-19T09:48:20.650Z,0.89
2023-05-19T09:49:20.797Z,0.87
2023-05-19T09:50:20.589Z,0.87
2023-05-19T09:51:20.582Z,0.88
2023-05-19T09:52:20.572Z,0.90
2023-05-19T09:53:20.591Z,0.87
2023-05-19T09:54:20.573Z,0.88
2023-05-19T09:55:20.559Z,0.88
2023-05-19T09:56:20.557Z,0.87
2023-05-19T09:57:20.542Z,0.89
2023-05-19T09:58:20.530Z,0.88
2023-05-19T09:59:20.585Z,0.87
2023-05-19T10:00:20.524Z,0.87
2023-05-19T10:01:20.592Z,0.89
2023-05-19T10:02:20.533Z,0.87
2023-05-19T10:03:20.545Z,0.87
2023-05-19T10:04:20.509Z,0.87
2023-05-19T10:05:20.792Z,0.88
2023-05-19T10:06:20.504Z,0.90
2023-05-19T10:07:20.547Z,0.88
2023-05-19T10:08:20.599Z,0.87
2023-05-19T10:09:20.553Z,0.87
2023-05-19T10:10:20.648Z,0.87
2023-05-19T10:11:20.639Z,0.89
2023-05-19T10:12:20.652Z,0.86
2023-05-19T10:13:20.686Z,0.89
2023-05-19T10:14:20.709Z,0.89
2023-05-19T10:15:23.140Z,0.90
2023-05-19T10:16:20.787Z,0.89
2023-05-19T10:17:20.734Z,0.89
2023-05-19T10:18:20.723Z,0.90
2023-05-19T10:19:20.790Z,0.89
2023-05-19T10:20:20.735Z,0.88
2023-05-19T10:21:20.680Z,0.90
2023-05-19T10:22:20.706Z,0.88
2023-05-19T10:23:20.682Z,0.89
2023-05-19T10:24:20.672Z,0.88
2023-05-19T10:25:20.705Z,0.91
2023-05-19T10:26:20.670Z,0.92
2023-05-19T10:27:20.690Z,0.88
2023-05-19T10:28:20.651Z,0.90
2023-05-19T10:29:20.639Z,0.89
2023-05-19T10:30:20.645Z,0.90
2023-05-19T10:31:20.597Z,0.92
2023-05-19T10:32:20.697Z,0.90
2023-05-19T10:33:20.658Z,0.90
2023-05-19T10:34:20.608Z,0.91
2023-05-19T10:35:20.586Z,0.91
2023-05-19T10:36:20.604Z,0.91
2023-05-19T10:37:20.630Z,0.89
2023-05-19T10:38:20.594Z,0.91
2023-05-19T10:39:20.558Z,0.91
2023-05-19T10:40:20.562Z,0.89
2023-05-19T10:41:20.593Z,0.92
2023-05-19T10:42:20.560Z,0.91
2023-05-19T10:43:20.526Z,0.91
2023-05-19T10:44:20.527Z,0.92
2023-05-19T10:45:20.524Z,0.90
2023-05-19T10:46:20.548Z,0.92
2023-05-19T10:47:20.644Z,0.91
2023-05-19T10:48:20.527Z,0.91
2023-05-19T10:49:20.521Z,0.90
2023-05-19T10:50:20.493Z,0.92
2023-05-19T10:51:20.479Z,0.93
2023-05-19T10:52:20.482Z,0.90
2023-05-19T10:53:20.492Z,0.91
2023-05-19T10:54:20.472Z,0.92
2023-05-19T10:55:20.485Z,0.93
2023-05-19T10:56:20.462Z,0.91
2023-05-19T10:57:20.448Z,0.93
2023-05-19T10:58:20.441Z,0.92
2023-05-19T10:59:20.452Z,0.92
2023-05-19T11:00:20.419Z,0.91
2023-05-19T11:01:20.426Z,0.91
2023-05-19T11:02:20.533Z,0.90
2023-05-19T11:03:20.465Z,0.90
2023-05-19T11:04:20.425Z,0.92
2023-05-19T11:05:20.390Z,0.93
2023-05-19T11:06:20.409Z,0.91
2023-05-19T11:07:20.392Z,0.93
2023-05-19T11:08:20.381Z,0.93
2023-05-19T11:09:31.119Z,0.92
2023-05-19T11:10:21.611Z,0.92
2023-05-19T11:11:20.389Z,0.93
2023-05-19T11:12:20.349Z,0.93
2023-05-19T11:13:20.367Z,0.92
2023-05-19T11:14:20.353Z,0.91
2023-05-19T11:15:20.325Z,0.93
2023-05-19T11:16:20.397Z,0.92
2023-05-19T11:17:20.319Z,0.92
2023-05-19T11:18:20.329Z,0.93
2023-05-19T11:19:20.412Z,0.95
2023-05-19T11:20:20.292Z,0.92
2023-05-19T11:21:20.395Z,0.94
2023-05-19T11:22:20.298Z,0.92
2023-05-19T11:23:20.350Z,0.94
2023-05-19T11:24:20.303Z,0.91
2023-05-19T11:25:20.269Z,0.92
2023-05-19T11:26:20.270Z,0.94
2023-05-19T11:27:20.276Z,0.93
2023-05-19T11:28:20.310Z,0.94
2023-05-19T11:29:20.228Z,0.94
2023-05-19T11:30:20.340Z,0.95
2023-05-19T11:31:20.225Z,0.93
2023-05-19T11:32:20.308Z,0.95
2023-05-19T11:33:20.331Z,0.93
2023-05-19T11:34:20.270Z,0.95
2023-05-19T11:35:20.297Z,0.92
2023-05-19T11:36:20.305Z,0.94
2023-05-19T11:37:20.341Z,0.90
2023-05-19T11:38:20.354Z,0.95
2023-05-19T11:39:20.336Z,0.95
2023-05-19T11:40:20.380Z,0.93
2023-05-19T11:41:20.950Z,0.91
2023-05-19T11:42:20.427Z,0.94
2023-05-19T11:43:20.412Z,0.93
2023-05-19T11:44:20.394Z,0.93
2023-05-19T11:45:20.432Z,0.93
2023-05-19T11:46:20.475Z,0.95
2023-05-19T11:47:20.452Z,0.96
2023-05-19T11:48:20.474Z,0.95
2023-05-19T11:49:20.459Z,0.95
2023-05-19T11:50:20.667Z,0.94
2023-05-19T11:51:20.515Z,0.94
2023-05-19T11:52:20.505Z,0.96
2023-05-19T11:53:20.548Z,0.94
2023-05-19T11:54:20.590Z,0.94
2023-05-19T11:55:20.542Z,0.91
2023-05-19T11:56:20.699Z,0.95
2023-05-19T11:57:20.630Z,0.93
2023-05-19T11:58:20.591Z,0.93
2023-05-19T11:59:20.606Z,0.95
2023-05-19T12:00:20.586Z,0.94
2023-05-19T12:01:20.582Z,0.94
2023-05-19T12:02:20.649Z,0.95
2023-05-19T12:03:20.716Z,0.95
2023-05-19T12:04:20.627Z,0.95
2023-05-19T12:05:20.702Z,0.96
2023-05-19T12:06:20.721Z,0.95
2023-05-19T12:07:20.662Z,0.93
2023-05-19T12:08:20.675Z,0.92
2023-05-19T12:09:20.695Z,0.92
2023-05-19T12:10:20.710Z,0.88
2023-05-19T12:11:20.694Z,0.85
2023-05-19T12:12:20.737Z,0.82
2023-05-19T12:13:20.763Z,0.81
2023-05-19T12:14:20.802Z,0.81
2023-05-19T12:15:20.737Z,0.79
2023-05-19T12:16:20.870Z,0.75
2023-05-19T12:17:20.827Z,0.74
2023-05-19T12:18:20.822Z,0.74
2023-05-19T12:19:20.849Z,0.71
2023-05-19T12:20:20.867Z,0.68
2023-05-19T12:21:20.889Z,0.68
2023-05-19T12:22:20.863Z,0.65
2023-05-19T12:23:20.920Z,0.62
2023-05-19T12:24:20.920Z,0.59
2023-05-19T12:25:20.924Z,0.60
2023-05-19T12:26:20.933Z,0.59
2023-05-19T12:27:20.937Z,0.57
2023-05-19T12:28:20.953Z,0.56
2023-05-19T12:29:20.992Z,0.54
2023-05-19T12:30:20.991Z,0.55
2023-05-19T12:31:21.062Z,0.55
2023-05-19T12:32:21.022Z,0.54
2023-05-19T12:33:21.047Z,0.50
2023-05-19T12:34:21.048Z,0.51
2023-05-19T12:35:21.056Z,0.52
2023-05-19T12:36:21.187Z,0.52
2023-05-19T12:37:21.069Z,0.50
2023-05-19T12:38:21.108Z,0.51
2023-05-19T12:39:21.551Z,0.51
2023-05-19T12:40:21.108Z,0.51
2023-05-19T12:41:21.141Z,0.50
2023-05-19T12:42:21.126Z,0.51
2023-05-19T12:43:21.174Z,0.51
2023-05-19T12:44:21.159Z,0.51
2023-05-19T12:45:21.163Z,0.51
2023-05-19T12:46:21.221Z,0.51
2023-05-19T12:47:21.181Z,0.50
2023-05-19T12:48:21.334Z,0.51
2023-05-19T12:49:21.218Z,0.52
2023-05-19T12:50:21.256Z,0.52
2023-05-19T12:51:21.254Z,0.51
2023-05-19T12:52:21.250Z,0.50
2023-05-19T12:53:21.295Z,0.52
2023-05-19T12:54:21.294Z,0.50
2023-05-19T12:55:21.263Z,0.50
2023-05-19T12:56:21.323Z,0.52
2023-05-19T12:57:21.349Z,0.53
2023-05-19T12:58:21.322Z,0.52
2023-05-19T12:59:37.046Z,0.52
2023-05-19T13:00:22.434Z,0.52
2023-05-19T13:01:21.399Z,0.52
2023-05-19T13:02:21.438Z,0.52
2023-05-19T13:03:21.499Z,0.51
2023-05-19T13:04:21.336Z,0.49
2023-05-19T13:05:21.295Z,0.50
2023-05-19T13:06:21.303Z,0.51
2023-05-19T13:07:21.336Z,0.52
2023-05-19T13:08:21.291Z,0.54
2023-05-19T13:09:21.293Z,0.54
2023-05-19T13:10:21.284Z,0.52
2023-05-19T13:11:21.298Z,0.51
2023-05-19T13:12:21.240Z,0.50
2023-05-19T13:13:21.290Z,0.53
2023-05-19T13:14:21.256Z,0.52
2023-05-19T13:15:21.240Z,0.51
2023-05-19T13:16:21.285Z,0.53
2023-05-19T13:17:21.242Z,0.51
2023-05-19T13:18:21.264Z,0.51
2023-05-19T13:19:25.444Z,0.53
2023-05-19T13:20:21.218Z,0.53
2023-05-19T13:21:21.233Z,0.53
2023-05-19T13:22:21.179Z,0.53
2023-05-19T13:23:21.210Z,0.52
2023-05-19T13:24:21.216Z,0.54
2023-05-19T13:25:21.215Z,0.52
2023-05-19T13:26:21.152Z,0.53
2023-05-19T13:27:21.197Z,0.50
2023-05-19T13:28:21.224Z,0.50
2023-05-19T13:29:21.176Z,0.54
2023-05-19T13:30:21.137Z,0.51
2023-05-19T13:31:21.142Z,0.53
2023-05-19T13:32:21.156Z,0.53
2023-05-19T13:33:21.122Z,0.53
2023-05-19T13:34:21.117Z,0.55
2023-05-19T13:35:21.088Z,0.53
2023-05-19T13:36:21.110Z,0.51
2023-05-19T13:37:21.110Z,0.53
2023-05-19T13:38:21.096Z,0.52
2023-05-19T13:39:21.116Z,0.53
2023-05-19T13:40:21.103Z,0.51
2023-05-19T13:41:21.098Z,0.53
2023-05-19T13:42:21.093Z,0.54
2023-05-19T13:43:21.051Z,0.53
2023-05-19T13:44:21.054Z,0.51
2023-05-19T13:45:21.021Z,0.52
2023-05-19T13:46:29.401Z,0.54
2023-05-19T13:47:22.092Z,0.54
2023-05-19T13:48:21.070Z,0.52
2023-05-19T13:49:21.067Z,0.53
2023-05-19T13:50:21.010Z,0.52
2023-05-19T13:51:21.041Z,0.55
2023-05-19T13:52:21.013Z,0.53
2023-05-19T13:53:21.015Z,0.55
2023-05-19T13:54:20.996Z,0.51
2023-05-19T13:55:20.999Z,0.53
2023-05-19T13:56:20.992Z,0.52
2023-05-19T13:57:20.952Z,0.51
2023-05-19T13:58:20.965Z,0.51
2023-05-19T13:59:20.966Z,0.52
2023-05-19T14:00:20.963Z,0.54
2023-05-19T14:01:20.946Z,0.56
2023-05-19T14:02:20.954Z,0.58
2023-05-19T14:03:21.001Z,0.59
2023-05-19T14:04:21.088Z,0.60
2023-05-19T14:05:20.937Z,0.61
2023-05-19T14:06:20.930Z,0.65
2023-05-19T14:07:20.896Z,0.65
2023-05-19T14:08:20.914Z,0.72
2023-05-19T14:09:20.904Z,0.76
2023-05-19T14:10:20.859Z,0.81
2023-05-19T14:11:20.874Z,0.82
2023-05-19T14:12:25.269Z,0.80
2023-05-19T14:13:32.332Z,0.80
2023-05-19T14:14:21.846Z,0.80
2023-05-19T14:15:20.848Z,0.81
2023-05-19T14:16:20.852Z,0.83
2023-05-19T14:17:20.833Z,0.86
2023-05-19T14:18:20.825Z,0.92
2023-05-19T14:19:20.908Z,0.91
2023-05-19T14:20:20.792Z,0.94
2023-05-19T14:21:20.842Z,0.95
2023-05-19T14:22:20.804Z,0.94
2023-05-19T14:23:20.798Z,0.96
2023-05-19T14:24:20.814Z,1.00
2023-05-19T14:25:20.758Z,0.99
2023-05-19T14:26:20.797Z,1.00
2023-05-19T14:27:20.772Z,1.01
2023-05-19T14:28:20.726Z,1.00
2023-05-19T14:29:20.759Z,1.01
2023-05-19T14:30:20.755Z,1.01
2023-05-19T14:31:20.808Z,1.03
2023-05-19T14:32:20.800Z,1.04
2023-05-19T14:33:20.711Z,1.07
2023-05-19T14:34:20.713Z,1.09
2023-05-19T14:35:20.723Z,1.09
2023-05-19T14:36:20.753Z,1.10
2023-05-19T14:37:20.706Z,1.11
2023-05-19T14:38:20.740Z,1.12
2023-05-19T14:39:20.684Z,1.13
2023-05-19T14:40:20.685Z,1.13
2023-05-19T14:41:20.689Z,1.13
2023-05-19T14:42:20.650Z,1.17
2023-05-19T14:43:20.653Z,1.16
2023-05-19T14:44:20.687Z,1.14
2023-05-19T14:45:20.637Z,1.19
2023-05-19T14:46:20.824Z,1.18
2023-05-19T14:47:20.635Z,1.17
2023-05-19T14:48:20.672Z,1.20
2023-05-19T14:49:20.622Z,1.18
2023-05-19T14:50:20.601Z,1.19
2023-05-19T14:51:20.609Z,1.21
2023-05-19T14:52:20.617Z,1.20
2023-05-19T14:53:20.599Z,1.21
2023-05-19T14:54:20.598Z,1.22
2023-05-19T14:55:20.556Z,1.20
2023-05-19T14:56:20.585Z,1.23
2023-05-19T14:57:20.575Z,1.23
2023-05-19T14:58:28.777Z,1.26
2023-05-19T14:59:21.602Z,1.26
2023-05-19T15:00:20.550Z,1.26
2023-05-19T15:01:20.608Z,1.26
2023-05-19T15:02:20.531Z,1.29
2023-05-19T15:03:20.505Z,1.29
2023-05-19T15:04:20.614Z,1.29
2023-05-19T15:05:20.500Z,1.28
2023-05-19T15:06:20.520Z,1.32
2023-05-19T15:07:20.494Z,1.31
2023-05-19T15:08:20.499Z,1.30
2023-05-19T15:09:20.510Z,1.30
2023-05-19T15:10:20.486Z,1.31
2023-05-19T15:11:20.505Z,1.28
2023-05-19T15:12:20.478Z,1.34
2023-05-19T15:13:20.433Z,1.32
2023-05-19T15:14:20.452Z,1.32
2023-05-19T15:15:20.440Z,1.31
2023-05-19T15:16:20.472Z,1.32
2023-05-19T15:17:20.572Z,1.33
2023-05-19T15:18:20.417Z,1.35
2023-05-19T15:19:20.531Z,1.32
2023-05-19T15:20:20.420Z,1.32
2023-05-19T15:21:20.406Z,1.33
2023-05-19T15:22:20.405Z,1.34
2023-05-19T15:23:20.437Z,1.35
2023-05-19T15:24:20.417Z,1.33
2023-05-19T15:25:20.412Z,1.38
2023-05-19T15:26:20.359Z,1.37
2023-05-19T15:27:20.380Z,1.34
2023-05-19T15:28:20.345Z,1.37
2023-05-19T15:29:20.383Z,1.39
2023-05-19T15:30:20.369Z,1.36
2023-05-19T15:31:20.370Z,1.36
2023-05-19T15:32:20.341Z,1.40
2023-05-19T15:33:20.337Z,1.38
2023-05-19T15:34:20.344Z,1.36
2023-05-19T15:35:20.312Z,1.35
2023-05-19T15:36:20.285Z,1.36
2023-05-19T15:37:20.334Z,1.39
2023-05-19T15:38:20.439Z,1.35
2023-05-19T15:39:20.280Z,1.37
2023-05-19T15:40:20.308Z,1.37
2023-05-19T15:41:20.283Z,1.36
2023-05-19T15:42:20.344Z,1.39
2023-05-19T15:43:20.320Z,1.40
2023-05-19T15:44:20.352Z,1.39
2023-05-19T15:45:20.326Z,1.39
2023-05-19T15:46:20.382Z,1.41
2023-05-19T15:47:20.339Z,1.40
2023-05-19T15:48:20.333Z,1.38
2023-05-19T15:49:20.346Z,1.40
2023-05-19T15:50:20.336Z,1.41
2023-05-19T15:51:20.363Z,1.40
2023-05-19T15:52:20.372Z,1.38
2023-05-19T15:53:20.376Z,1.40
2023-05-19T15:54:20.425Z,1.38
2023-05-19T15:55:20.391Z,1.42
2023-05-19T15:56:20.395Z,1.39
2023-05-19T15:57:20.463Z,1.42
2023-05-19T15:58:20.419Z,1.43
2023-05-19T15:59:20.460Z,1.41
2023-05-19T16:00:20.490Z,1.41
2023-05-19T16:01:20.513Z,1.39
2023-05-19T16:02:20.495Z,1.39
2023-05-19T16:03:20.520Z,1.41
2023-05-19T16:04:20.536Z,1.41
2023-05-19T16:05:20.474Z,1.39
2023-05-19T16:06:20.461Z,1.39
2023-05-19T16:07:20.488Z,1.41
2023-05-19T16:08:20.506Z,1.41
2023-05-19T16:09:20.498Z,1.40
2023-05-19T16:10:20.505Z,1.41
2023-05-19T16:11:20.488Z,1.38
2023-05-19T16:12:20.509Z,1.40
2023-05-19T16:13:20.524Z,1.39
2023-05-19T16:14:20.510Z,1.39
2023-05-19T16:15:20.552Z,1.42
2023-05-19T16:16:20.545Z,1.39
2023-05-19T16:17:20.521Z,1.43
2023-05-19T16:18:20.556Z,1.41
2023-05-19T16:19:20.615Z,1.41
2023-05-19T16:20:20.573Z,1.43
2023-05-19T16:21:20.568Z,1.40
2023-05-19T16:22:21.823Z,1.38
2023-05-19T16:23:20.594Z,1.39
2023-05-19T16:24:20.619Z,1.39
2023-05-19T16:25:20.600Z,1.39
2023-05-19T16:26:20.607Z,1.40
2023-05-19T16:27:20.590Z,1.41
2023-05-19T16:28:22.345Z,1.40
2023-05-19T16:29:20.760Z,1.40
2023-05-19T16:30:20.736Z,1.41
2023-05-19T16:31:20.857Z,1.43
2023-05-19T16:32:20.770Z,1.41
2023-05-19T16:33:20.772Z,1.39
2023-05-19T16:34:20.758Z,1.44
2023-05-19T16:35:20.904Z,1.40
2023-05-19T16:36:20.884Z,1.39
2023-05-19T16:37:20.758Z,1.40
2023-05-19T16:38:20.780Z,1.43
2023-05-19T16:39:20.810Z,1.40
2023-05-19T16:40:20.793Z,1.44
2023-05-19T16:41:20.801Z,1.43
2023-05-19T16:42:20.815Z,1.39
2023-05-19T16:43:20.821Z,1.38
2023-05-19T16:44:20.829Z,1.40
2023-05-19T16:45:20.837Z,1.40
2023-05-19T16:46:20.904Z,1.41
2023-05-19T16:47:20.822Z,1.40
2023-05-19T16:48:20.954Z,1.42
2023-05-19T16:49:20.866Z,1.39
2023-05-19T16:50:20.854Z,1.40
2023-05-19T16:51:20.843Z,1.39
2023-05-19T16:52:20.902Z,1.41
2023-05-19T16:53:20.898Z,1.37
2023-05-19T16:54:20.878Z,1.42
2023-05-19T16:55:20.891Z,1.39
2023-05-19T16:56:20.938Z,1.39
2023-05-19T16:57:20.894Z,1.40
2023-05-19T16:58:20.893Z,1.40
2023-05-19T16:59:20.908Z,1.40
2023-05-19T17:00:20.936Z,1.40
